Terminal Aerodrome Forecast
Issued by NWS

Home | Current Version | Previous Version | Graphics & Text | Print | Product List | Glossary On
Versions: 1 2 3 4 5 6 7 8 9 10 11 12 13 14
149
FTUS43 KICT 160530
TAFRSL
TAF
KRSL 160530Z 1606/1706 04009KT 4SM -FZRA BR OVC003
      TEMPO 1606/1610 1 1/2SM FZRA BR OVC005
     FM161000 02013KT 4SM -FZRA BR OVC003
      TEMPO 1610/1614 1 1/2SM FZRA BR OVC005
     FM161900 35014KT P6SM OVC006
     FM162300 33015KT P6SM OVC008=

USA.gov is the U.S. government's official web portal to all federal, state and local government web resources and services.